createdAt,value
2022-07-29T00:00:52.159Z,43.68
2022-07-29T00:03:18.682Z,43.99
2022-07-29T00:05:45.263Z,43.66
2022-07-29T00:08:12.748Z,43.50
2022-07-29T00:10:39.620Z,43.73
2022-07-29T00:13:06.197Z,43.75
2022-07-29T00:15:32.600Z,43.77
2022-07-29T00:17:59.103Z,43.42
2022-07-29T00:20:25.525Z,43.44
2022-07-29T00:22:51.990Z,44.18
2022-07-29T00:25:18.403Z,43.44
2022-07-29T00:27:46.726Z,43.73
2022-07-29T00:30:13.263Z,43.65
2022-07-29T00:32:40.042Z,43.75
2022-07-29T00:35:25.410Z,43.65
2022-07-29T00:37:53.668Z,43.72
2022-07-29T00:40:20.073Z,43.48
2022-07-29T00:42:51.498Z,43.40
2022-07-29T00:45:18.574Z,43.20
2022-07-29T00:47:45.730Z,43.01
2022-07-29T00:50:13.208Z,43.37
2022-07-29T00:52:40.613Z,43.21
2022-07-29T00:55:08.952Z,43.47
2022-07-29T00:57:38.877Z,43.71
2022-07-29T01:00:06.090Z,42.97
2022-07-29T01:02:33.896Z,43.18
2022-07-29T01:05:00.494Z,42.93
2022-07-29T01:07:27.714Z,43.38
2022-07-29T01:09:55.475Z,43.10
2022-07-29T01:12:26.033Z,43.30
2022-07-29T01:14:53.128Z,43.00
2022-07-29T01:17:27.703Z,43.48
2022-07-29T01:19:54.581Z,43.51
2022-07-29T01:22:36.357Z,43.55
2022-07-29T01:25:21.687Z,43.59
2022-07-29T01:28:06.959Z,43.16
2022-07-29T01:30:37.838Z,42.25
2022-07-29T01:33:07.437Z,41.57
2022-07-29T01:35:39.312Z,41.41
2022-07-29T01:38:14.493Z,41.59
2022-07-29T01:40:48.933Z,42.41
2022-07-29T01:43:21.167Z,42.63
2022-07-29T01:45:57.276Z,42.34
2022-07-29T01:48:29.510Z,42.39
2022-07-29T01:51:06.825Z,42.67
2022-07-29T01:53:39.936Z,43.00
2022-07-29T01:56:07.502Z,43.16
2022-07-29T01:58:36.667Z,42.72
2022-07-29T02:01:04.586Z,42.74
2022-07-29T02:03:32.775Z,42.60
2022-07-29T02:06:00.905Z,42.22
2022-07-29T02:08:29.174Z,42.33
2022-07-29T02:10:56.346Z,42.33
2022-07-29T02:13:24.598Z,42.29
2022-07-29T02:15:52.178Z,42.25
2022-07-29T02:18:19.464Z,42.17
2022-07-29T02:20:48.152Z,42.40
2022-07-29T02:23:17.238Z,42.32
2022-07-29T02:25:43.846Z,42.27
2022-07-29T02:28:12.998Z,42.22
2022-07-29T02:30:41.542Z,42.38
2022-07-29T02:33:09.494Z,42.59
2022-07-29T02:35:36.410Z,42.30
2022-07-29T02:38:22.562Z,42.60
2022-07-29T02:40:49.559Z,42.46
2022-07-29T02:43:16.427Z,42.56
2022-07-29T02:45:43.737Z,42.89
2022-07-29T02:48:16.171Z,42.76
2022-07-29T02:50:50.370Z,42.34
2022-07-29T02:53:19.502Z,42.46
2022-07-29T02:55:59.938Z,41.95
2022-07-29T02:58:34.270Z,41.87
2022-07-29T03:01:03.622Z,41.40
2022-07-29T03:03:31.861Z,42.21
2022-07-29T03:05:58.893Z,42.06
2022-07-29T03:08:25.770Z,42.46
2022-07-29T03:10:52.251Z,42.53
2022-07-29T03:13:19.809Z,42.41
2022-07-29T03:15:46.728Z,42.32
2022-07-29T03:18:13.836Z,42.41
2022-07-29T03:20:40.610Z,42.49
2022-07-29T03:23:07.255Z,42.72
2022-07-29T03:25:33.745Z,42.22
2022-07-29T03:28:00.341Z,42.16
2022-07-29T03:30:26.884Z,42.49
2022-07-29T03:32:54.001Z,42.31
2022-07-29T03:35:20.912Z,42.51
2022-07-29T03:37:47.609Z,42.53
2022-07-29T03:40:18.252Z,42.58
2022-07-29T03:42:46.198Z,42.79
2022-07-29T03:45:14.714Z,42.48
2022-07-29T03:47:51.140Z,42.73
2022-07-29T03:50:20.387Z,42.81
2022-07-29T03:52:47.620Z,42.82
2022-07-29T03:55:14.603Z,42.67
2022-07-29T03:57:41.367Z,42.87
2022-07-29T04:00:08.327Z,42.96
2022-07-29T04:02:34.948Z,42.83
2022-07-29T04:05:01.445Z,42.65
2022-07-29T04:07:28.008Z,42.82
2022-07-29T04:09:54.451Z,42.80
2022-07-29T04:12:21.986Z,42.92
2022-07-29T04:14:48.464Z,42.88
2022-07-29T04:17:14.872Z,42.75
2022-07-29T04:19:41.419Z,43.01
2022-07-29T04:22:07.875Z,43.08
2022-07-29T04:24:34.388Z,42.78
2022-07-29T04:27:00.872Z,42.97
2022-07-29T04:29:27.271Z,43.00
2022-07-29T04:31:53.771Z,43.11
2022-07-29T04:34:20.691Z,42.87
2022-07-29T04:36:47.494Z,43.16
2022-07-29T04:39:17.052Z,43.32
2022-07-29T04:41:45.838Z,43.26
2022-07-29T04:44:12.951Z,43.22
2022-07-29T04:46:40.629Z,43.25
2022-07-29T04:49:07.143Z,43.39
2022-07-29T04:51:33.655Z,43.28
2022-07-29T04:54:00.034Z,43.40
2022-07-29T04:56:26.516Z,43.50
2022-07-29T04:58:53.221Z,43.33
2022-07-29T05:01:19.804Z,43.31
2022-07-29T05:03:46.534Z,43.30
2022-07-29T05:06:13.108Z,43.22
2022-07-29T05:08:39.516Z,43.26
2022-07-29T05:11:12.160Z,43.44
2022-07-29T05:13:45.939Z,43.38
2022-07-29T05:16:14.102Z,43.40
2022-07-29T05:18:40.713Z,43.46
2022-07-29T05:21:07.316Z,43.37
2022-07-29T05:23:33.753Z,43.47
2022-07-29T05:26:00.140Z,43.52
2022-07-29T05:28:26.501Z,43.36
2022-07-29T05:30:52.965Z,43.42
2022-07-29T05:33:36.047Z,43.43
2022-07-29T05:36:06.544Z,43.74
2022-07-29T05:38:33.418Z,43.48
2022-07-29T05:41:00.584Z,43.55
2022-07-29T05:43:28.201Z,43.53
2022-07-29T05:45:54.776Z,43.55
2022-07-29T05:48:21.648Z,43.77
2022-07-29T05:50:48.061Z,43.75
2022-07-29T05:53:19.104Z,43.70
2022-07-29T05:55:46.684Z,43.86
2022-07-29T05:58:13.408Z,43.95
2022-07-29T06:00:39.815Z,44.11
2022-07-29T06:03:06.471Z,43.92
2022-07-29T06:05:33.057Z,43.96
2022-07-29T06:07:59.559Z,43.84
2022-07-29T06:10:26.322Z,43.94
2022-07-29T06:12:53.747Z,43.95
2022-07-29T06:15:20.479Z,43.87
2022-07-29T06:17:59.299Z,44.08
2022-07-29T06:20:31.601Z,43.88
2022-07-29T06:22:58.563Z,44.15
2022-07-29T06:25:25.074Z,44.10
2022-07-29T06:27:51.543Z,43.80
2022-07-29T06:30:18.019Z,43.96
2022-07-29T06:32:44.412Z,43.75
2022-07-29T06:37:59.525Z,43.88
2022-07-29T06:40:45.073Z,44.13
2022-07-29T06:43:12.035Z,44.05
2022-07-29T06:45:42.346Z,43.88
2022-07-29T06:48:09.247Z,43.91
2022-07-29T06:50:35.675Z,44.20
2022-07-29T06:53:02.145Z,44.13
2022-07-29T06:55:28.689Z,43.86
2022-07-29T06:57:55.087Z,44.42
2022-07-29T07:00:21.635Z,44.34
2022-07-29T07:02:48.119Z,44.31
2022-07-29T07:05:14.617Z,44.60
2022-07-29T07:07:41.022Z,44.58
2022-07-29T07:10:07.748Z,44.29
2022-07-29T07:12:34.159Z,44.70
2022-07-29T07:15:00.740Z,44.69
2022-07-29T07:17:27.167Z,44.92
2022-07-29T07:19:53.558Z,44.65
2022-07-29T07:22:19.953Z,45.19
2022-07-29T07:24:46.347Z,44.86
2022-07-29T07:27:12.778Z,44.77
2022-07-29T07:29:42.092Z,44.47
2022-07-29T07:32:10.842Z,44.64
2022-07-29T07:34:38.832Z,44.27
2022-07-29T07:37:05.670Z,44.42
2022-07-29T07:39:32.131Z,44.50
2022-07-29T07:41:58.554Z,44.69
2022-07-29T07:44:25.042Z,44.66
2022-07-29T07:46:51.451Z,44.52
2022-07-29T07:49:17.963Z,44.77
2022-07-29T07:51:44.542Z,45.02
2022-07-29T07:54:17.615Z,44.44
2022-07-29T07:56:44.517Z,44.65
2022-07-29T07:59:10.969Z,44.53
2022-07-29T08:01:48.436Z,44.24
2022-07-29T08:04:27.722Z,44.41
2022-07-29T08:06:55.290Z,44.44
2022-07-29T08:09:29.213Z,44.48
2022-07-29T08:11:57.008Z,44.23
2022-07-29T08:14:23.591Z,44.28
2022-07-29T08:16:50.273Z,44.39
2022-07-29T08:19:16.934Z,44.33
2022-07-29T08:21:43.395Z,44.30
2022-07-29T08:24:28.167Z,44.08
2022-07-29T08:26:54.586Z,44.08
2022-07-29T08:29:21.007Z,43.95
2022-07-29T08:31:47.567Z,44.11
2022-07-29T08:34:14.192Z,43.61
2022-07-29T08:36:40.676Z,43.60
2022-07-29T08:39:07.185Z,43.49
2022-07-29T08:41:33.824Z,43.23
2022-07-29T08:44:00.278Z,42.96
2022-07-29T08:46:26.843Z,42.89
2022-07-29T08:48:53.294Z,42.70
2022-07-29T08:51:20.564Z,42.61
2022-07-29T08:53:49.349Z,42.36
2022-07-29T08:56:18.229Z,42.18
2022-07-29T08:58:45.717Z,42.35
2022-07-29T09:01:21.901Z,41.93
2022-07-29T09:03:49.826Z,42.23
2022-07-29T09:06:18.498Z,41.97
2022-07-29T09:08:45.890Z,41.75
2022-07-29T09:11:12.969Z,41.38
2022-07-29T09:13:39.467Z,41.83
2022-07-29T09:16:09.419Z,41.41
2022-07-29T09:18:37.705Z,41.30
2022-07-29T09:21:23.629Z,41.31
2022-07-29T09:24:08.669Z,41.29
2022-07-29T09:26:36.658Z,41.05
2022-07-29T09:29:14.242Z,41.06
2022-07-29T09:31:42.933Z,41.01
2022-07-29T09:34:10.505Z,41.26
2022-07-29T09:36:47.549Z,40.80
2022-07-29T09:39:15.324Z,40.51
2022-07-29T09:41:51.068Z,40.51
2022-07-29T09:44:17.704Z,40.76
2022-07-29T09:46:58.289Z,40.94
2022-07-29T09:49:25.762Z,40.73
2022-07-29T09:52:06.081Z,40.52
2022-07-29T09:54:37.836Z,40.77
2022-07-29T09:57:07.499Z,41.07
2022-07-29T09:59:34.438Z,41.37
2022-07-29T10:02:00.953Z,40.96
2022-07-29T10:04:47.662Z,40.45
2022-07-29T10:07:14.215Z,40.03
2022-07-29T10:09:50.444Z,40.17
2022-07-29T10:12:17.080Z,39.99
2022-07-29T10:14:43.903Z,39.83
2022-07-29T10:17:11.213Z,39.21
2022-07-29T10:19:38.258Z,39.23
2022-07-29T10:22:07.682Z,38.43
2022-07-29T10:24:34.552Z,37.39
2022-07-29T10:27:02.253Z,36.39
2022-07-29T10:29:32.531Z,35.68
2022-07-29T10:32:05.606Z,34.71
2022-07-29T10:34:44.843Z,34.50
2022-07-29T10:37:20.946Z,34.57
2022-07-29T10:40:26.338Z,34.48
2022-07-29T10:42:56.136Z,34.16
2022-07-29T10:45:23.489Z,34.24
2022-07-29T10:48:03.083Z,33.89
2022-07-29T10:50:49.524Z,33.91
2022-07-29T10:53:16.068Z,33.44
2022-07-29T10:55:45.391Z,33.20
2022-07-29T10:58:21.353Z,33.65
2022-07-29T11:00:49.390Z,32.98
2022-07-29T11:03:34.837Z,32.83
2022-07-29T11:06:02.382Z,32.69
2022-07-29T11:08:35.072Z,32.92
2022-07-29T11:11:19.874Z,33.05
2022-07-29T11:13:51.449Z,32.82
2022-07-29T11:16:23.059Z,33.28
2022-07-29T11:19:10.773Z,33.08
2022-07-29T11:21:54.202Z,33.14
2022-07-29T11:24:29.988Z,33.10
2022-07-29T11:27:13.451Z,33.23
2022-07-29T11:32:36.906Z,33.89
2022-07-29T11:38:19.821Z,34.10
2022-07-29T11:41:07.716Z,34.49
2022-07-29T11:43:48.037Z,34.74
2022-07-29T11:46:17.728Z,34.61
2022-07-29T11:51:38.415Z,35.18
2022-07-29T11:54:17.981Z,35.39
2022-07-29T11:56:54.096Z,35.17
2022-07-29T11:59:21.148Z,35.49
2022-07-29T12:02:18.349Z,35.33
2022-07-29T12:04:51.483Z,35.57
2022-07-29T12:07:01.566Z,33.97
2022-07-29T12:07:03.466Z,35.07
2022-07-29T12:07:03.661Z,33.85
2022-07-29T12:07:19.090Z,35.64
2022-07-29T12:09:53.495Z,35.95
2022-07-29T12:12:24.538Z,35.87
2022-07-29T12:14:51.367Z,35.76
2022-07-29T12:17:33.674Z,36.15
2022-07-29T12:20:01.448Z,35.62
2022-07-29T12:22:38.108Z,35.70
2022-07-29T12:25:31.883Z,36.58
2022-07-29T12:27:59.591Z,36.50
2022-07-29T12:30:35.958Z,36.39
2022-07-29T12:33:02.793Z,35.89
2022-07-29T12:35:29.235Z,36.42
2022-07-29T12:37:55.885Z,36.00
2022-07-29T12:40:23.898Z,35.95
2022-07-29T12:43:06.769Z,36.09
2022-07-29T12:45:33.446Z,35.77
2022-07-29T12:48:00.134Z,35.45
2022-07-29T12:50:27.014Z,35.47
2022-07-29T12:52:53.543Z,35.75
2022-07-29T12:55:38.816Z,35.32
2022-07-29T12:58:05.244Z,35.51
2022-07-29T13:00:32.122Z,35.68
2022-07-29T13:03:00.048Z,35.73
2022-07-29T13:05:49.634Z,35.87
2022-07-29T13:08:21.993Z,35.67
2022-07-29T13:10:48.782Z,35.76
2022-07-29T13:13:15.917Z,36.15
2022-07-29T13:15:43.617Z,36.15
2022-07-29T13:18:29.166Z,36.24
2022-07-29T13:20:55.930Z,35.92
2022-07-29T13:23:22.380Z,36.42
2022-07-29T13:25:48.953Z,36.42
2022-07-29T13:28:15.552Z,36.21
2022-07-29T13:30:44.546Z,35.96
2022-07-29T13:33:11.299Z,36.20
2022-07-29T13:35:40.042Z,36.10
2022-07-29T13:38:06.837Z,36.41
2022-07-29T13:40:34.812Z,36.23
2022-07-29T13:43:01.204Z,36.46
2022-07-29T13:45:29.194Z,36.16
2022-07-29T13:47:55.874Z,36.31
2022-07-29T13:50:22.321Z,36.15
2022-07-29T13:52:49.505Z,36.23
2022-07-29T13:55:16.027Z,36.75
2022-07-29T13:57:42.423Z,36.55
2022-07-29T14:00:09.434Z,36.67
2022-07-29T14:02:35.839Z,36.36
2022-07-29T14:05:07.675Z,36.30
2022-07-29T14:07:34.893Z,36.58
2022-07-29T14:10:01.303Z,37.16
2022-07-29T14:12:27.764Z,37.14
2022-07-29T14:14:54.206Z,36.53
2022-07-29T14:17:20.692Z,36.21
2022-07-29T14:19:47.118Z,35.88
2022-07-29T14:22:13.620Z,35.92
2022-07-29T14:24:40.592Z,35.62
2022-07-29T14:27:08.119Z,35.64
2022-07-29T14:29:38.014Z,35.94
2022-07-29T14:32:08.456Z,36.49
2022-07-29T14:34:35.538Z,36.50
2022-07-29T14:37:02.081Z,36.28
2022-07-29T14:39:31.724Z,36.22
2022-07-29T14:41:59.132Z,36.25
2022-07-29T14:44:31.802Z,36.63
2022-07-29T14:47:07.858Z,35.27
2022-07-29T14:49:34.916Z,36.32
2022-07-29T14:52:01.525Z,35.63
2022-07-29T14:54:28.142Z,35.57
2022-07-29T14:56:57.830Z,35.53
2022-07-29T14:59:24.573Z,35.48
2022-07-29T15:01:51.079Z,35.29
2022-07-29T15:04:17.553Z,36.05
2022-07-29T15:06:44.059Z,36.03
2022-07-29T15:09:10.477Z,36.15
2022-07-29T15:11:38.204Z,36.94
2022-07-29T15:14:04.942Z,36.38
2022-07-29T15:16:31.393Z,36.80
2022-07-29T15:18:58.717Z,37.09
2022-07-29T15:21:27.870Z,36.74
2022-07-29T15:23:54.473Z,37.00
2022-07-29T15:26:21.088Z,36.98
2022-07-29T15:28:47.623Z,36.57
2022-07-29T15:31:14.080Z,35.72
2022-07-29T15:33:40.658Z,36.35
2022-07-29T15:36:07.212Z,36.30
2022-07-29T15:38:33.940Z,36.21
2022-07-29T15:41:00.698Z,36.33
2022-07-29T15:43:27.193Z,35.67
2022-07-29T15:46:12.315Z,35.46
2022-07-29T15:48:40.200Z,36.13
2022-07-29T15:51:06.656Z,35.49
2022-07-29T15:53:33.846Z,35.92
2022-07-29T15:56:02.143Z,36.56
2022-07-29T15:58:28.568Z,36.50
2022-07-29T16:00:55.078Z,36.79
2022-07-29T16:03:22.817Z,36.94
2022-07-29T16:05:49.201Z,36.67
2022-07-29T16:08:15.598Z,36.24
2022-07-29T16:10:42.085Z,36.43
2022-07-29T16:13:08.538Z,36.02
2022-07-29T16:15:35.321Z,35.80
2022-07-29T16:18:01.827Z,35.68
2022-07-29T16:20:29.587Z,35.58
2022-07-29T16:22:56.151Z,35.72
2022-07-29T16:25:38.338Z,35.70
2022-07-29T16:28:09.051Z,35.73
2022-07-29T16:30:35.922Z,35.96
2022-07-29T16:33:07.831Z,36.51
2022-07-29T16:35:39.626Z,36.63
2022-07-29T16:38:06.625Z,37.08
2022-07-29T16:40:33.160Z,36.65
2022-07-29T16:42:59.624Z,37.04
2022-07-29T16:45:26.248Z,37.08
2022-07-29T16:48:00.337Z,36.86
2022-07-29T16:50:28.822Z,36.61
2022-07-29T16:52:55.605Z,36.16
2022-07-29T16:55:22.266Z,36.61
2022-07-29T16:57:48.738Z,37.19
2022-07-29T17:00:16.237Z,37.09
2022-07-29T17:02:42.783Z,37.38
2022-07-29T17:05:10.657Z,36.90
2022-07-29T17:07:37.264Z,37.19
2022-07-29T17:10:08.109Z,37.13
2022-07-29T17:12:38.151Z,37.03
2022-07-29T17:15:05.318Z,36.65
2022-07-29T17:17:39.231Z,36.98
2022-07-29T17:20:18.844Z,37.21
2022-07-29T17:22:45.269Z,37.26
2022-07-29T17:25:13.651Z,37.46
2022-07-29T17:27:47.589Z,36.65
2022-07-29T17:30:14.093Z,36.92
2022-07-29T17:32:40.529Z,36.39
2022-07-29T17:35:25.699Z,36.16
2022-07-29T17:37:52.273Z,36.24
2022-07-29T17:40:18.677Z,36.40
2022-07-29T17:42:45.098Z,36.16
2022-07-29T17:45:11.557Z,36.21
2022-07-29T17:47:38.420Z,36.62
2022-07-29T17:50:05.602Z,36.16
2022-07-29T17:52:31.989Z,36.89
2022-07-29T17:54:58.524Z,36.47
2022-07-29T17:57:25.165Z,36.80
2022-07-29T17:59:51.714Z,36.28
2022-07-29T18:02:18.397Z,36.34
2022-07-29T18:04:45.021Z,35.85
2022-07-29T18:07:17.095Z,35.85
2022-07-29T18:09:43.521Z,36.23
2022-07-29T18:12:10.138Z,36.40
2022-07-29T18:14:36.545Z,35.97
2022-07-29T18:17:03.166Z,36.12
2022-07-29T18:19:29.785Z,36.07
2022-07-29T18:22:00.426Z,35.85
2022-07-29T18:24:31.479Z,36.11
2022-07-29T18:26:58.130Z,36.29
2022-07-29T18:29:24.952Z,36.65
2022-07-29T18:31:51.410Z,36.74
2022-07-29T18:34:18.011Z,36.67
2022-07-29T18:36:45.784Z,36.55
2022-07-29T18:39:15.411Z,36.81
2022-07-29T18:41:50.751Z,36.61
2022-07-29T18:44:21.866Z,36.77
2022-07-29T18:46:49.559Z,36.69
2022-07-29T18:49:16.188Z,36.35
2022-07-29T18:51:42.649Z,36.78
2022-07-29T18:54:10.068Z,36.75
2022-07-29T18:56:36.818Z,36.55
2022-07-29T18:59:03.354Z,36.40
2022-07-29T19:01:31.725Z,36.56
2022-07-29T19:03:59.020Z,36.52
2022-07-29T19:06:26.028Z,36.63
2022-07-29T19:08:52.947Z,36.65
2022-07-29T19:11:19.387Z,36.92
2022-07-29T19:13:45.876Z,36.83
2022-07-29T19:16:14.053Z,36.75
2022-07-29T19:18:40.810Z,36.74
2022-07-29T19:21:07.282Z,36.84
2022-07-29T19:24:03.820Z,36.92
2022-07-29T19:26:20.939Z,36.83
2022-07-29T19:28:48.838Z,36.76
2022-07-29T19:31:15.844Z,36.94
2022-07-29T19:33:42.682Z,36.73
2022-07-29T19:36:09.336Z,36.92
2022-07-29T19:38:35.806Z,37.04
2022-07-29T19:41:02.201Z,36.90
2022-07-29T19:43:50.915Z,37.13
2022-07-29T19:46:15.128Z,37.01
2022-07-29T19:48:41.623Z,37.19
2022-07-29T19:51:08.144Z,36.84
2022-07-29T19:53:34.738Z,37.16
2022-07-29T19:56:03.531Z,37.26
2022-07-29T19:58:30.378Z,37.39
2022-07-29T20:00:57.111Z,37.11
2022-07-29T20:03:23.681Z,37.21
2022-07-29T20:05:51.393Z,37.42
2022-07-29T20:08:18.025Z,37.74
2022-07-29T20:10:44.460Z,37.58
2022-07-29T20:13:11.161Z,37.76
2022-07-29T20:15:38.740Z,37.75
2022-07-29T20:18:05.298Z,38.14
2022-07-29T20:20:31.756Z,37.86
2022-07-29T20:22:59.261Z,38.29
2022-07-29T20:25:25.746Z,37.98
2022-07-29T20:27:55.089Z,38.11
2022-07-29T20:30:22.219Z,38.32
2022-07-29T20:32:48.967Z,38.24
2022-07-29T20:35:15.610Z,38.21
2022-07-29T20:37:56.040Z,38.53
2022-07-29T20:40:23.445Z,38.48
2022-07-29T20:42:49.940Z,38.32
2022-07-29T20:45:16.434Z,38.27
2022-07-29T20:47:42.909Z,38.45
2022-07-29T20:50:10.260Z,38.34
2022-07-29T20:52:36.711Z,38.41
2022-07-29T20:55:03.305Z,38.34
2022-07-29T20:57:38.998Z,38.70
2022-07-29T21:00:06.710Z,38.40
2022-07-29T21:02:33.441Z,38.66
2022-07-29T21:04:59.923Z,38.44
2022-07-29T21:07:26.398Z,38.50
2022-07-29T21:09:52.941Z,38.53
2022-07-29T21:12:19.435Z,38.40
2022-07-29T21:14:48.605Z,37.99
2022-07-29T21:17:15.882Z,38.23
2022-07-29T21:19:42.795Z,38.14
2022-07-29T21:22:09.464Z,37.66
2022-07-29T21:24:35.961Z,37.86
2022-07-29T21:27:21.931Z,37.81
2022-07-29T21:29:48.704Z,37.91
2022-07-29T21:32:30.114Z,37.88
2022-07-29T21:34:57.111Z,37.61
2022-07-29T21:37:23.605Z,37.52
2022-07-29T21:39:50.047Z,37.79
2022-07-29T21:42:16.533Z,37.97
2022-07-29T21:44:43.078Z,37.76
2022-07-29T21:47:09.831Z,37.47
2022-07-29T21:49:36.336Z,37.75
2022-07-29T21:52:03.982Z,37.95
2022-07-29T21:54:30.390Z,37.94
2022-07-29T21:56:57.197Z,37.83
2022-07-29T21:59:24.520Z,37.65
2022-07-29T22:01:51.036Z,37.62
2022-07-29T22:04:17.631Z,38.02
2022-07-29T22:06:44.385Z,37.87
2022-07-29T22:09:10.792Z,37.79
2022-07-29T22:11:37.312Z,38.18
2022-07-29T22:14:04.576Z,38.20
2022-07-29T22:16:31.286Z,38.15
2022-07-29T22:18:57.891Z,38.57
2022-07-29T22:21:24.431Z,38.58
2022-07-29T22:23:50.869Z,38.61
2022-07-29T22:26:17.258Z,38.53
2022-07-29T22:28:43.772Z,38.54
2022-07-29T22:31:10.212Z,38.36
2022-07-29T22:33:36.697Z,38.39
2022-07-29T22:36:03.168Z,38.50
2022-07-29T22:38:29.869Z,38.32
2022-07-29T22:41:01.555Z,38.56
2022-07-29T22:43:29.800Z,38.34
2022-07-29T22:45:56.267Z,38.27
2022-07-29T22:48:22.786Z,38.42
2022-07-29T22:50:49.206Z,38.59
2022-07-29T22:53:15.685Z,38.51
2022-07-29T22:55:42.079Z,38.72
2022-07-29T22:58:08.632Z,38.66
2022-07-29T23:00:35.021Z,38.63
2022-07-29T23:03:01.401Z,38.41
2022-07-29T23:05:27.837Z,38.69
2022-07-29T23:07:54.231Z,38.43
2022-07-29T23:10:22.538Z,38.46
2022-07-29T23:12:49.205Z,38.71
2022-07-29T23:15:15.769Z,38.67
2022-07-29T23:17:44.598Z,38.65
2022-07-29T23:20:11.330Z,38.49
2022-07-29T23:22:41.163Z,38.87
2022-07-29T23:25:07.881Z,38.85
2022-07-29T23:27:34.307Z,38.82
2022-07-29T23:30:00.757Z,38.80
2022-07-29T23:32:27.160Z,38.75
2022-07-29T23:34:53.646Z,38.95
2022-07-29T23:37:20.050Z,38.74
2022-07-29T23:39:46.563Z,38.91
2022-07-29T23:42:12.948Z,38.64
2022-07-29T23:44:39.376Z,38.98
2022-07-29T23:47:05.822Z,38.72
2022-07-29T23:49:32.227Z,38.75
2022-07-29T23:51:58.646Z,38.93
2022-07-29T23:54:25.091Z,38.95
2022-07-29T23:56:51.522Z,38.96
2022-07-29T23:59:17.915Z,38.98
